sensor_id;sensor_type;location;lat;lon;timestamp;P1;durP1;ratioP1;P2;durP2;ratioP2
31270;SDS011;17904;47.420;9.310;2022-12-29T00:01:40;1.80;;;0.60;;
31270;SDS011;17904;47.420;9.310;2022-12-29T00:04:09;1.13;;;0.68;;
31270;SDS011;17904;47.420;9.310;2022-12-29T00:06:41;2.47;;;0.88;;
31270;SDS011;17904;47.420;9.310;2022-12-29T00:09:10;2.28;;;0.85;;
31270;SDS011;17904;47.420;9.310;2022-12-29T00:11:38;0.60;;;0.60;;
31270;SDS011;17904;47.420;9.310;2022-12-29T00:14:05;1.00;;;0.65;;
31270;SDS011;17904;47.420;9.310;2022-12-29T00:16:53;2.05;;;0.55;;
31270;SDS011;17904;47.420;9.310;2022-12-29T00:22:05;1.40;;;0.70;;
31270;SDS011;17904;47.420;9.310;2022-12-29T00:24:50;1.80;;;0.73;;
31270;SDS011;17904;47.420;9.310;2022-12-29T00:27:36;2.60;;;0.70;;
31270;SDS011;17904;47.420;9.310;2022-12-29T00:30:29;0.50;;;0.50;;
31270;SDS011;17904;47.420;9.310;2022-12-29T00:33:15;0.80;;;0.50;;
31270;SDS011;17904;47.420;9.310;2022-12-29T00:36:36;2.33;;;1.00;;
31270;SDS011;17904;47.420;9.310;2022-12-29T00:39:04;0.57;;;0.40;;
31270;SDS011;17904;47.420;9.310;2022-12-29T00:41:55;1.73;;;0.65;;
31270;SDS011;17904;47.420;9.310;2022-12-29T00:44:40;0.52;;;0.52;;
31270;SDS011;17904;47.420;9.310;2022-12-29T00:47:08;1.75;;;0.63;;
31270;SDS011;17904;47.420;9.310;2022-12-29T00:49:35;0.55;;;0.43;;
31270;SDS011;17904;47.420;9.310;2022-12-29T00:52:03;0.50;;;0.50;;
31270;SDS011;17904;47.420;9.310;2022-12-29T00:54:33;1.88;;;0.40;;
31270;SDS011;17904;47.420;9.310;2022-12-29T00:57:02;2.72;;;0.73;;
31270;SDS011;17904;47.420;9.310;2022-12-29T00:59:29;1.08;;;0.45;;
31270;SDS011;17904;47.420;9.310;2022-12-29T01:04:24;1.35;;;0.60;;
31270;SDS011;17904;47.420;9.310;2022-12-29T01:06:52;0.60;;;0.45;;
31270;SDS011;17904;47.420;9.310;2022-12-29T01:09:19;0.85;;;0.40;;
31270;SDS011;17904;47.420;9.310;2022-12-29T01:12:06;1.10;;;0.70;;
31270;SDS011;17904;47.420;9.310;2022-12-29T01:14:34;1.10;;;0.82;;
31270;SDS011;17904;47.420;9.310;2022-12-29T01:17:02;1.05;;;0.60;;
31270;SDS011;17904;47.420;9.310;2022-12-29T01:19:29;3.45;;;0.60;;
31270;SDS011;17904;47.420;9.310;2022-12-29T01:21:56;0.32;;;0.32;;
31270;SDS011;17904;47.420;9.310;2022-12-29T01:24:23;0.85;;;0.70;;
31270;SDS011;17904;47.420;9.310;2022-12-29T01:26:52;0.75;;;0.60;;
31270;SDS011;17904;47.420;9.310;2022-12-29T01:29:20;1.52;;;0.95;;
31270;SDS011;17904;47.420;9.310;2022-12-29T01:31:47;0.45;;;0.45;;
31270;SDS011;17904;47.420;9.310;2022-12-29T01:34:16;0.50;;;0.50;;
31270;SDS011;17904;47.420;9.310;2022-12-29T01:36:43;0.50;;;0.40;;
31270;SDS011;17904;47.420;9.310;2022-12-29T01:39:11;1.10;;;0.50;;
31270;SDS011;17904;47.420;9.310;2022-12-29T01:41:39;0.50;;;0.50;;
31270;SDS011;17904;47.420;9.310;2022-12-29T01:47:20;1.33;;;0.70;;
31270;SDS011;17904;47.420;9.310;2022-12-29T01:49:56;2.75;;;2.05;;
31270;SDS011;17904;47.420;9.310;2022-12-29T01:52:28;0.32;;;0.32;;
31270;SDS011;17904;47.420;9.310;2022-12-29T01:54:59;0.98;;;0.65;;
31270;SDS011;17904;47.420;9.310;2022-12-29T01:57:28;1.27;;;0.70;;
31270;SDS011;17904;47.420;9.310;2022-12-29T02:00:12;0.60;;;0.55;;
31270;SDS011;17904;47.420;9.310;2022-12-29T02:02:44;1.00;;;0.80;;
31270;SDS011;17904;47.420;9.310;2022-12-29T02:05:16;3.25;;;0.85;;
31270;SDS011;17904;47.420;9.310;2022-12-29T02:08:11;7.63;;;0.68;;
31270;SDS011;17904;47.420;9.310;2022-12-29T02:10:39;0.40;;;0.40;;
31270;SDS011;17904;47.420;9.310;2022-12-29T02:13:08;3.40;;;0.75;;
31270;SDS011;17904;47.420;9.310;2022-12-29T02:18:32;5.65;;;0.68;;
31270;SDS011;17904;47.420;9.310;2022-12-29T02:21:30;2.17;;;0.60;;
31270;SDS011;17904;47.420;9.310;2022-12-29T02:33:13;0.88;;;0.82;;
31270;SDS011;17904;47.420;9.310;2022-12-29T02:39:04;3.05;;;0.60;;
31270;SDS011;17904;47.420;9.310;2022-12-29T02:44:26;0.57;;;0.57;;
31270;SDS011;17904;47.420;9.310;2022-12-29T02:50:01;0.60;;;0.52;;
31270;SDS011;17904;47.420;9.310;2022-12-29T02:52:54;2.58;;;0.80;;
31270;SDS011;17904;47.420;9.310;2022-12-29T02:55:26;1.77;;;1.33;;
31270;SDS011;17904;47.420;9.310;2022-12-29T03:00:41;0.98;;;0.70;;
31270;SDS011;17904;47.420;9.310;2022-12-29T03:03:45;1.02;;;0.80;;
31270;SDS011;17904;47.420;9.310;2022-12-29T03:06:21;1.55;;;1.00;;
31270;SDS011;17904;47.420;9.310;2022-12-29T03:08:56;1.05;;;0.85;;
31270;SDS011;17904;47.420;9.310;2022-12-29T03:11:58;0.85;;;0.75;;
31270;SDS011;17904;47.420;9.310;2022-12-29T03:17:42;0.75;;;0.60;;
31270;SDS011;17904;47.420;9.310;2022-12-29T03:20:21;1.90;;;0.65;;
31270;SDS011;17904;47.420;9.310;2022-12-29T03:22:54;1.40;;;0.70;;
31270;SDS011;17904;47.420;9.310;2022-12-29T03:25:30;1.38;;;0.75;;
31270;SDS011;17904;47.420;9.310;2022-12-29T03:28:05;1.23;;;0.93;;
31270;SDS011;17904;47.420;9.310;2022-12-29T03:30:41;1.02;;;0.77;;
31270;SDS011;17904;47.420;9.310;2022-12-29T03:33:10;0.77;;;0.75;;
31270;SDS011;17904;47.420;9.310;2022-12-29T03:35:43;0.95;;;0.88;;
31270;SDS011;17904;47.420;9.310;2022-12-29T03:38:17;3.00;;;0.77;;
31270;SDS011;17904;47.420;9.310;2022-12-29T03:40:52;1.25;;;0.73;;
31270;SDS011;17904;47.420;9.310;2022-12-29T03:43:28;2.75;;;0.70;;
31270;SDS011;17904;47.420;9.310;2022-12-29T03:45:56;0.98;;;0.75;;
31270;SDS011;17904;47.420;9.310;2022-12-29T03:48:23;0.98;;;0.80;;
31270;SDS011;17904;47.420;9.310;2022-12-29T03:50:53;1.08;;;0.75;;
31270;SDS011;17904;47.420;9.310;2022-12-29T03:53:21;1.08;;;0.80;;
31270;SDS011;17904;47.420;9.310;2022-12-29T03:55:48;2.47;;;1.30;;
31270;SDS011;17904;47.420;9.310;2022-12-29T03:58:15;0.95;;;0.80;;
31270;SDS011;17904;47.420;9.310;2022-12-29T04:00:57;3.05;;;0.90;;
31270;SDS011;17904;47.420;9.310;2022-12-29T04:05:51;0.63;;;0.60;;
31270;SDS011;17904;47.420;9.310;2022-12-29T04:08:18;2.00;;;0.93;;
31270;SDS011;17904;47.420;9.310;2022-12-29T04:10:48;3.80;;;1.00;;
31270;SDS011;17904;47.420;9.310;2022-12-29T04:13:19;1.92;;;0.90;;
31270;SDS011;17904;47.420;9.310;2022-12-29T04:18:13;0.90;;;0.60;;
31270;SDS011;17904;47.420;9.310;2022-12-29T04:23:26;0.60;;;0.60;;
31270;SDS011;17904;47.420;9.310;2022-12-29T04:25:54;5.40;;;2.15;;
31270;SDS011;17904;47.420;9.310;2022-12-29T04:30:53;5.75;;;0.98;;
31270;SDS011;17904;47.420;9.310;2022-12-29T04:33:23;8.15;;;3.30;;
31270;SDS011;17904;47.420;9.310;2022-12-29T04:35:52;2.25;;;0.80;;
31270;SDS011;17904;47.420;9.310;2022-12-29T04:38:21;3.72;;;0.95;;
31270;SDS011;17904;47.420;9.310;2022-12-29T04:40:50;1.20;;;1.00;;
31270;SDS011;17904;47.420;9.310;2022-12-29T04:43:20;2.45;;;0.88;;
31270;SDS011;17904;47.420;9.310;2022-12-29T04:46:06;1.25;;;0.75;;
31270;SDS011;17904;47.420;9.310;2022-12-29T04:48:56;4.78;;;2.70;;
31270;SDS011;17904;47.420;9.310;2022-12-29T04:51:29;1.52;;;1.00;;
31270;SDS011;17904;47.420;9.310;2022-12-29T04:53:56;0.70;;;0.70;;
31270;SDS011;17904;47.420;9.310;2022-12-29T04:56:24;1.10;;;1.00;;
31270;SDS011;17904;47.420;9.310;2022-12-29T04:58:51;1.08;;;0.98;;
31270;SDS011;17904;47.420;9.310;2022-12-29T05:01:19;1.92;;;1.10;;
31270;SDS011;17904;47.420;9.310;2022-12-29T05:03:46;0.82;;;0.70;;
31270;SDS011;17904;47.420;9.310;2022-12-29T05:06:16;2.78;;;1.20;;
31270;SDS011;17904;47.420;9.310;2022-12-29T05:08:44;1.63;;;0.80;;
31270;SDS011;17904;47.420;9.310;2022-12-29T05:13:38;2.13;;;1.60;;
31270;SDS011;17904;47.420;9.310;2022-12-29T05:18:31;5.18;;;1.00;;
31270;SDS011;17904;47.420;9.310;2022-12-29T05:20:59;3.65;;;1.30;;
31270;SDS011;17904;47.420;9.310;2022-12-29T05:23:27;1.58;;;0.80;;
31270;SDS011;17904;47.420;9.310;2022-12-29T05:26:05;1.80;;;1.33;;
31270;SDS011;17904;47.420;9.310;2022-12-29T05:29:10;3.33;;;0.77;;
31270;SDS011;17904;47.420;9.310;2022-12-29T05:34:04;1.95;;;1.08;;
31270;SDS011;17904;47.420;9.310;2022-12-29T05:36:31;2.17;;;0.90;;
31270;SDS011;17904;47.420;9.310;2022-12-29T05:39:05;1.38;;;1.10;;
31270;SDS011;17904;47.420;9.310;2022-12-29T05:41:34;1.25;;;0.90;;
31270;SDS011;17904;47.420;9.310;2022-12-29T05:44:21;1.75;;;1.20;;
31270;SDS011;17904;47.420;9.310;2022-12-29T05:47:12;7.43;;;0.98;;
31270;SDS011;17904;47.420;9.310;2022-12-29T05:50:00;1.27;;;1.05;;
31270;SDS011;17904;47.420;9.310;2022-12-29T05:52:48;1.38;;;1.13;;
31270;SDS011;17904;47.420;9.310;2022-12-29T05:55:15;1.35;;;1.10;;
31270;SDS011;17904;47.420;9.310;2022-12-29T05:57:45;2.35;;;1.05;;
31270;SDS011;17904;47.420;9.310;2022-12-29T06:00:14;3.63;;;1.25;;
31270;SDS011;17904;47.420;9.310;2022-12-29T06:02:43;1.80;;;0.90;;
31270;SDS011;17904;47.420;9.310;2022-12-29T06:05:10;1.88;;;1.10;;
31270;SDS011;17904;47.420;9.310;2022-12-29T06:07:38;1.65;;;1.10;;
31270;SDS011;17904;47.420;9.310;2022-12-29T06:10:05;1.70;;;1.13;;
31270;SDS011;17904;47.420;9.310;2022-12-29T06:12:41;1.92;;;1.20;;
31270;SDS011;17904;47.420;9.310;2022-12-29T06:15:08;2.30;;;1.30;;
31270;SDS011;17904;47.420;9.310;2022-12-29T06:17:38;2.90;;;1.00;;
31270;SDS011;17904;47.420;9.310;2022-12-29T06:20:05;1.77;;;1.52;;
31270;SDS011;17904;47.420;9.310;2022-12-29T06:22:33;1.75;;;1.08;;
31270;SDS011;17904;47.420;9.310;2022-12-29T06:25:00;4.00;;;0.90;;
31270;SDS011;17904;47.420;9.310;2022-12-29T06:27:31;1.50;;;1.00;;
31270;SDS011;17904;47.420;9.310;2022-12-29T06:29:59;1.08;;;0.80;;
31270;SDS011;17904;47.420;9.310;2022-12-29T06:32:26;2.88;;;0.85;;
31270;SDS011;17904;47.420;9.310;2022-12-29T06:34:59;1.52;;;0.80;;
31270;SDS011;17904;47.420;9.310;2022-12-29T06:37:26;0.70;;;0.70;;
31270;SDS011;17904;47.420;9.310;2022-12-29T06:39:53;2.97;;;1.00;;
31270;SDS011;17904;47.420;9.310;2022-12-29T06:42:20;1.10;;;1.00;;
31270;SDS011;17904;47.420;9.310;2022-12-29T06:45:06;2.78;;;1.30;;
31270;SDS011;17904;47.420;9.310;2022-12-29T06:47:34;0.75;;;0.75;;
31270;SDS011;17904;47.420;9.310;2022-12-29T06:50:01;1.30;;;0.90;;
31270;SDS011;17904;47.420;9.310;2022-12-29T06:52:29;1.88;;;0.93;;
31270;SDS011;17904;47.420;9.310;2022-12-29T06:57:22;2.00;;;1.23;;
31270;SDS011;17904;47.420;9.310;2022-12-29T06:59:49;3.10;;;0.85;;
31270;SDS011;17904;47.420;9.310;2022-12-29T07:04:45;1.20;;;1.00;;
31270;SDS011;17904;47.420;9.310;2022-12-29T07:07:12;1.23;;;0.90;;
31270;SDS011;17904;47.420;9.310;2022-12-29T07:09:39;1.80;;;1.35;;
31270;SDS011;17904;47.420;9.310;2022-12-29T07:12:06;1.42;;;0.98;;
31270;SDS011;17904;47.420;9.310;2022-12-29T07:14:32;9.98;;;4.93;;
31270;SDS011;17904;47.420;9.310;2022-12-29T07:17:08;1.92;;;1.30;;
31270;SDS011;17904;47.420;9.310;2022-12-29T07:22:01;1.70;;;1.30;;
31270;SDS011;17904;47.420;9.310;2022-12-29T07:24:28;3.60;;;1.50;;
31270;SDS011;17904;47.420;9.310;2022-12-29T07:26:56;4.97;;;1.27;;
31270;SDS011;17904;47.420;9.310;2022-12-29T07:29:23;7.32;;;2.03;;
31270;SDS011;17904;47.420;9.310;2022-12-29T07:31:50;5.07;;;2.55;;
31270;SDS011;17904;47.420;9.310;2022-12-29T07:34:17;3.67;;;1.30;;
31270;SDS011;17904;47.420;9.310;2022-12-29T07:36:44;2.67;;;1.48;;
31270;SDS011;17904;47.420;9.310;2022-12-29T07:39:11;3.47;;;1.67;;
31270;SDS011;17904;47.420;9.310;2022-12-29T07:44:09;4.95;;;2.28;;
31270;SDS011;17904;47.420;9.310;2022-12-29T07:46:52;1.92;;;1.45;;
31270;SDS011;17904;47.420;9.310;2022-12-29T07:49:23;4.82;;;3.10;;
31270;SDS011;17904;47.420;9.310;2022-12-29T07:51:49;3.25;;;1.85;;
31270;SDS011;17904;47.420;9.310;2022-12-29T07:54:16;10.90;;;2.20;;
31270;SDS011;17904;47.420;9.310;2022-12-29T07:56:44;2.92;;;1.77;;
31270;SDS011;17904;47.420;9.310;2022-12-29T07:59:12;2.47;;;1.50;;
31270;SDS011;17904;47.420;9.310;2022-12-29T08:01:39;2.83;;;1.55;;
31270;SDS011;17904;47.420;9.310;2022-12-29T08:04:06;2.67;;;1.40;;
31270;SDS011;17904;47.420;9.310;2022-12-29T08:06:33;2.63;;;1.90;;
31270;SDS011;17904;47.420;9.310;2022-12-29T08:09:00;3.92;;;2.00;;
31270;SDS011;17904;47.420;9.310;2022-12-29T08:11:38;7.00;;;3.17;;
31270;SDS011;17904;47.420;9.310;2022-12-29T08:14:06;3.90;;;1.75;;
31270;SDS011;17904;47.420;9.310;2022-12-29T08:16:33;5.85;;;2.17;;
31270;SDS011;17904;47.420;9.310;2022-12-29T08:19:00;5.45;;;2.53;;
31270;SDS011;17904;47.420;9.310;2022-12-29T08:21:27;3.65;;;2.00;;
31270;SDS011;17904;47.420;9.310;2022-12-29T08:23:54;6.97;;;3.20;;
31270;SDS011;17904;47.420;9.310;2022-12-29T08:26:22;2.00;;;1.83;;
31270;SDS011;17904;47.420;9.310;2022-12-29T08:28:51;2.78;;;2.58;;
31270;SDS011;17904;47.420;9.310;2022-12-29T08:31:19;2.10;;;1.90;;
31270;SDS011;17904;47.420;9.310;2022-12-29T08:33:46;3.25;;;1.98;;
31270;SDS011;17904;47.420;9.310;2022-12-29T08:36:13;1.92;;;1.60;;
31270;SDS011;17904;47.420;9.310;2022-12-29T08:38:40;1.77;;;1.60;;
31270;SDS011;17904;47.420;9.310;2022-12-29T08:43:33;5.70;;;2.13;;
31270;SDS011;17904;47.420;9.310;2022-12-29T08:48:27;4.35;;;1.45;;
31270;SDS011;17904;47.420;9.310;2022-12-29T08:50:53;2.20;;;1.42;;
31270;SDS011;17904;47.420;9.310;2022-12-29T08:55:47;7.95;;;1.65;;
31270;SDS011;17904;47.420;9.310;2022-12-29T08:58:32;5.55;;;1.50;;
31270;SDS011;17904;47.420;9.310;2022-12-29T09:03:26;3.25;;;1.50;;
31270;SDS011;17904;47.420;9.310;2022-12-29T09:06:13;2.97;;;1.67;;
31270;SDS011;17904;47.420;9.310;2022-12-29T09:08:41;3.72;;;1.42;;
31270;SDS011;17904;47.420;9.310;2022-12-29T09:13:36;1.92;;;1.42;;
31270;SDS011;17904;47.420;9.310;2022-12-29T09:16:04;3.33;;;1.48;;
31270;SDS011;17904;47.420;9.310;2022-12-29T09:18:31;2.03;;;1.50;;
31270;SDS011;17904;47.420;9.310;2022-12-29T09:21:01;3.25;;;1.50;;
31270;SDS011;17904;47.420;9.310;2022-12-29T09:23:29;2.35;;;1.38;;
31270;SDS011;17904;47.420;9.310;2022-12-29T09:25:56;2.50;;;1.73;;
31270;SDS011;17904;47.420;9.310;2022-12-29T09:30:50;2.00;;;1.40;;
31270;SDS011;17904;47.420;9.310;2022-12-29T09:33:16;3.85;;;1.38;;
31270;SDS011;17904;47.420;9.310;2022-12-29T09:35:44;2.13;;;1.55;;
31270;SDS011;17904;47.420;9.310;2022-12-29T09:38:15;3.38;;;1.70;;
31270;SDS011;17904;47.420;9.310;2022-12-29T09:40:44;9.18;;;1.85;;
31270;SDS011;17904;47.420;9.310;2022-12-29T09:46:23;2.67;;;1.52;;
31270;SDS011;17904;47.420;9.310;2022-12-29T09:49:03;3.33;;;2.15;;
31270;SDS011;17904;47.420;9.310;2022-12-29T09:51:34;5.15;;;1.63;;
31270;SDS011;17904;47.420;9.310;2022-12-29T09:54:17;5.57;;;1.70;;
31270;SDS011;17904;47.420;9.310;2022-12-29T09:56:46;2.30;;;1.33;;
31270;SDS011;17904;47.420;9.310;2022-12-29T09:59:19;2.20;;;1.30;;
31270;SDS011;17904;47.420;9.310;2022-12-29T10:02:36;2.40;;;1.63;;
31270;SDS011;17904;47.420;9.310;2022-12-29T10:04:41;4.75;;;1.90;;
31270;SDS011;17904;47.420;9.310;2022-12-29T10:25:59;5.22;;;2.35;;
31270;SDS011;17904;47.420;9.310;2022-12-29T10:28:33;3.40;;;2.30;;
31270;SDS011;17904;47.420;9.310;2022-12-29T10:31:13;3.72;;;2.10;;
31270;SDS011;17904;47.420;9.310;2022-12-29T10:33:49;4.80;;;1.95;;
31270;SDS011;17904;47.420;9.310;2022-12-29T10:36:34;6.13;;;2.92;;
31270;SDS011;17904;47.420;9.310;2022-12-29T10:39:16;3.80;;;1.92;;
31270;SDS011;17904;47.420;9.310;2022-12-29T10:42:11;4.97;;;2.00;;
31270;SDS011;17904;47.420;9.310;2022-12-29T10:44:44;4.45;;;2.42;;
31270;SDS011;17904;47.420;9.310;2022-12-29T10:47:16;5.05;;;2.33;;
31270;SDS011;17904;47.420;9.310;2022-12-29T10:49:47;6.15;;;1.20;;
31270;SDS011;17904;47.420;9.310;2022-12-29T10:52:15;2.53;;;1.20;;
31270;SDS011;17904;47.420;9.310;2022-12-29T10:54:50;1.65;;;0.95;;
31270;SDS011;17904;47.420;9.310;2022-12-29T10:57:40;2.65;;;0.75;;
31270;SDS011;17904;47.420;9.310;2022-12-29T11:00:14;1.27;;;0.60;;
31270;SDS011;17904;47.420;9.310;2022-12-29T11:03:09;1.50;;;0.80;;
31270;SDS011;17904;47.420;9.310;2022-12-29T11:08:17;1.37;;;0.43;;
31270;SDS011;17904;47.420;9.310;2022-12-29T11:10:57;0.65;;;0.65;;
31270;SDS011;17904;47.420;9.310;2022-12-29T11:13:27;2.83;;;0.63;;
31270;SDS011;17904;47.420;9.310;2022-12-29T11:16:04;3.55;;;1.00;;
31270;SDS011;17904;47.420;9.310;2022-12-29T11:18:38;2.13;;;0.80;;
31270;SDS011;17904;47.420;9.310;2022-12-29T11:23:58;2.05;;;0.60;;
31270;SDS011;17904;47.420;9.310;2022-12-29T11:26:29;3.15;;;1.35;;
31270;SDS011;17904;47.420;9.310;2022-12-29T11:32:10;4.60;;;0.80;;
31270;SDS011;17904;47.420;9.310;2022-12-29T11:34:39;2.63;;;0.88;;
31270;SDS011;17904;47.420;9.310;2022-12-29T11:37:12;3.33;;;0.90;;
31270;SDS011;17904;47.420;9.310;2022-12-29T11:39:53;5.75;;;1.15;;
31270;SDS011;17904;47.420;9.310;2022-12-29T11:42:33;2.92;;;0.70;;
31270;SDS011;17904;47.420;9.310;2022-12-29T11:45:19;4.07;;;1.00;;
31270;SDS011;17904;47.420;9.310;2022-12-29T11:47:52;3.30;;;0.80;;
31270;SDS011;17904;47.420;9.310;2022-12-29T11:50:21;2.95;;;1.02;;
31270;SDS011;17904;47.420;9.310;2022-12-29T11:52:56;3.38;;;1.02;;
31270;SDS011;17904;47.420;9.310;2022-12-29T11:55:29;3.03;;;1.00;;
31270;SDS011;17904;47.420;9.310;2022-12-29T11:57:59;2.35;;;0.80;;
31270;SDS011;17904;47.420;9.310;2022-12-29T12:00:29;1.15;;;0.82;;
31270;SDS011;17904;47.420;9.310;2022-12-29T12:03:17;2.03;;;1.00;;
31270;SDS011;17904;47.420;9.310;2022-12-29T12:05:59;2.50;;;1.42;;
31270;SDS011;17904;47.420;9.310;2022-12-29T12:08:33;2.75;;;0.68;;
31270;SDS011;17904;47.420;9.310;2022-12-29T12:11:27;5.15;;;1.02;;
31270;SDS011;17904;47.420;9.310;2022-12-29T12:14:05;4.45;;;0.93;;
31270;SDS011;17904;47.420;9.310;2022-12-29T12:17:18;4.57;;;0.95;;
31270;SDS011;17904;47.420;9.310;2022-12-29T12:25:38;3.08;;;0.98;;
31270;SDS011;17904;47.420;9.310;2022-12-29T12:28:30;3.75;;;0.90;;
31270;SDS011;17904;47.420;9.310;2022-12-29T12:31:04;2.25;;;1.20;;
31270;SDS011;17904;47.420;9.310;2022-12-29T12:33:42;3.75;;;1.55;;
31270;SDS011;17904;47.420;9.310;2022-12-29T12:36:25;4.07;;;0.80;;
31270;SDS011;17904;47.420;9.310;2022-12-29T12:39:07;1.58;;;0.77;;
31270;SDS011;17904;47.420;9.310;2022-12-29T12:44:51;1.02;;;0.93;;
31270;SDS011;17904;47.420;9.310;2022-12-29T12:53:00;0.47;;;0.47;;
31270;SDS011;17904;47.420;9.310;2022-12-29T13:01:31;3.58;;;0.75;;
31270;SDS011;17904;47.420;9.310;2022-12-29T13:15:31;3.13;;;1.80;;
31270;SDS011;17904;47.420;9.310;2022-12-29T13:18:18;2.97;;;1.40;;
31270;SDS011;17904;47.420;9.310;2022-12-29T13:21:04;3.15;;;1.73;;
31270;SDS011;17904;47.420;9.310;2022-12-29T13:23:48;2.88;;;1.58;;
31270;SDS011;17904;47.420;9.310;2022-12-29T13:26:26;1.77;;;1.30;;
31270;SDS011;17904;47.420;9.310;2022-12-29T13:37:33;1.83;;;1.30;;
31270;SDS011;17904;47.420;9.310;2022-12-29T13:40:12;2.15;;;1.50;;
31270;SDS011;17904;47.420;9.310;2022-12-29T13:42:42;2.50;;;1.60;;
31270;SDS011;17904;47.420;9.310;2022-12-29T13:45:14;2.03;;;1.05;;
31270;SDS011;17904;47.420;9.310;2022-12-29T13:50:42;2.53;;;1.50;;
31270;SDS011;17904;47.420;9.310;2022-12-29T13:56:14;2.35;;;1.10;;
31270;SDS011;17904;47.420;9.310;2022-12-29T14:01:34;2.00;;;1.30;;
31270;SDS011;17904;47.420;9.310;2022-12-29T14:04:26;2.70;;;1.35;;
31270;SDS011;17904;47.420;9.310;2022-12-29T14:07:03;1.95;;;1.20;;
31270;SDS011;17904;47.420;9.310;2022-12-29T14:09:48;3.53;;;1.70;;
31270;SDS011;17904;47.420;9.310;2022-12-29T14:12:20;1.60;;;1.02;;
31270;SDS011;17904;47.420;9.310;2022-12-29T14:17:43;1.75;;;1.45;;
31270;SDS011;17904;47.420;9.310;2022-12-29T14:20:17;1.67;;;1.20;;
31270;SDS011;17904;47.420;9.310;2022-12-29T14:22:57;2.30;;;1.50;;
31270;SDS011;17904;47.420;9.310;2022-12-29T14:28:39;7.13;;;2.50;;
31270;SDS011;17904;47.420;9.310;2022-12-29T14:36:34;12.02;;;5.20;;
31270;SDS011;17904;47.420;9.310;2022-12-29T14:39:03;8.68;;;3.72;;
31270;SDS011;17904;47.420;9.310;2022-12-29T14:41:32;6.47;;;2.10;;
31270;SDS011;17904;47.420;9.310;2022-12-29T14:44:09;4.00;;;2.45;;
31270;SDS011;17904;47.420;9.310;2022-12-29T14:46:49;6.47;;;2.42;;
31270;SDS011;17904;47.420;9.310;2022-12-29T14:52:07;3.78;;;2.50;;
31270;SDS011;17904;47.420;9.310;2022-12-29T14:54:46;5.25;;;2.90;;
31270;SDS011;17904;47.420;9.310;2022-12-29T14:57:22;7.20;;;3.05;;
31270;SDS011;17904;47.420;9.310;2022-12-29T14:59:56;4.82;;;3.05;;
31270;SDS011;17904;47.420;9.310;2022-12-29T15:02:38;5.93;;;3.15;;
31270;SDS011;17904;47.420;9.310;2022-12-29T15:05:52;4.60;;;2.58;;
31270;SDS011;17904;47.420;9.310;2022-12-29T15:08:01;2.72;;;1.83;;
31270;SDS011;17904;47.420;9.310;2022-12-29T15:10:32;3.42;;;1.92;;
31270;SDS011;17904;47.420;9.310;2022-12-29T15:13:04;5.28;;;2.42;;
31270;SDS011;17904;47.420;9.310;2022-12-29T15:15:40;7.60;;;2.65;;
31270;SDS011;17904;47.420;9.310;2022-12-29T15:20:54;5.15;;;1.80;;
31270;SDS011;17904;47.420;9.310;2022-12-29T15:23:24;3.67;;;1.73;;
31270;SDS011;17904;47.420;9.310;2022-12-29T15:26:07;4.05;;;2.28;;
31270;SDS011;17904;47.420;9.310;2022-12-29T15:31:14;5.05;;;2.20;;
31270;SDS011;17904;47.420;9.310;2022-12-29T15:33:47;2.38;;;1.70;;
31270;SDS011;17904;47.420;9.310;2022-12-29T15:36:23;3.90;;;1.80;;
31270;SDS011;17904;47.420;9.310;2022-12-29T15:38:52;5.30;;;2.03;;
31270;SDS011;17904;47.420;9.310;2022-12-29T15:41:22;2.97;;;1.88;;
31270;SDS011;17904;47.420;9.310;2022-12-29T15:46:27;2.72;;;1.85;;
31270;SDS011;17904;47.420;9.310;2022-12-29T15:48:56;3.50;;;1.50;;
31270;SDS011;17904;47.420;9.310;2022-12-29T15:51:29;3.10;;;1.67;;
31270;SDS011;17904;47.420;9.310;2022-12-29T15:54:00;3.22;;;1.95;;
31270;SDS011;17904;47.420;9.310;2022-12-29T15:56:30;3.80;;;1.98;;
31270;SDS011;17904;47.420;9.310;2022-12-29T15:58:59;4.07;;;2.10;;
31270;SDS011;17904;47.420;9.310;2022-12-29T16:01:30;4.72;;;2.25;;
31270;SDS011;17904;47.420;9.310;2022-12-29T16:04:01;4.35;;;2.33;;
31270;SDS011;17904;47.420;9.310;2022-12-29T16:06:32;3.17;;;2.00;;
31270;SDS011;17904;47.420;9.310;2022-12-29T16:09:14;5.20;;;2.20;;
31270;SDS011;17904;47.420;9.310;2022-12-29T16:11:55;4.25;;;2.50;;
31270;SDS011;17904;47.420;9.310;2022-12-29T16:14:33;3.55;;;2.17;;
31270;SDS011;17904;47.420;9.310;2022-12-29T16:17:12;3.30;;;1.92;;
31270;SDS011;17904;47.420;9.310;2022-12-29T16:19:49;5.18;;;2.00;;
31270;SDS011;17904;47.420;9.310;2022-12-29T16:22:22;3.92;;;1.92;;
31270;SDS011;17904;47.420;9.310;2022-12-29T16:24:58;4.35;;;1.85;;
31270;SDS011;17904;47.420;9.310;2022-12-29T16:30:03;4.25;;;1.95;;
31270;SDS011;17904;47.420;9.310;2022-12-29T16:32:32;4.55;;;2.13;;
31270;SDS011;17904;47.420;9.310;2022-12-29T16:35:09;3.58;;;1.90;;
31270;SDS011;17904;47.420;9.310;2022-12-29T16:37:39;4.47;;;2.40;;
31270;SDS011;17904;47.420;9.310;2022-12-29T16:43:00;4.90;;;2.00;;
31270;SDS011;17904;47.420;9.310;2022-12-29T16:48:34;5.15;;;1.95;;
31270;SDS011;17904;47.420;9.310;2022-12-29T16:54:01;5.22;;;2.05;;
31270;SDS011;17904;47.420;9.310;2022-12-29T16:56:29;2.90;;;2.05;;
31270;SDS011;17904;47.420;9.310;2022-12-29T16:59:02;6.25;;;2.50;;
31270;SDS011;17904;47.420;9.310;2022-12-29T17:01:35;9.25;;;2.85;;
31270;SDS011;17904;47.420;9.310;2022-12-29T17:04:06;3.28;;;2.03;;
31270;SDS011;17904;47.420;9.310;2022-12-29T17:06:36;2.63;;;1.63;;
31270;SDS011;17904;47.420;9.310;2022-12-29T17:09:17;2.92;;;1.92;;
31270;SDS011;17904;47.420;9.310;2022-12-29T17:11:46;3.75;;;2.40;;
31270;SDS011;17904;47.420;9.310;2022-12-29T17:14:35;3.20;;;2.10;;
31270;SDS011;17904;47.420;9.310;2022-12-29T17:17:31;8.52;;;3.63;;
31270;SDS011;17904;47.420;9.310;2022-12-29T17:20:04;3.63;;;2.35;;
31270;SDS011;17904;47.420;9.310;2022-12-29T17:22:42;6.88;;;3.10;;
31270;SDS011;17904;47.420;9.310;2022-12-29T17:25:14;6.97;;;3.42;;
31270;SDS011;17904;47.420;9.310;2022-12-29T17:27:46;6.93;;;4.00;;
31270;SDS011;17904;47.420;9.310;2022-12-29T17:30:17;9.43;;;3.35;;
31270;SDS011;17904;47.420;9.310;2022-12-29T17:33:04;5.32;;;3.05;;
31270;SDS011;17904;47.420;9.310;2022-12-29T17:35:34;7.35;;;4.07;;
31270;SDS011;17904;47.420;9.310;2022-12-29T17:38:01;4.75;;;2.45;;
31270;SDS011;17904;47.420;9.310;2022-12-29T17:42:58;3.30;;;2.40;;
31270;SDS011;17904;47.420;9.310;2022-12-29T17:45:26;4.03;;;2.08;;
31270;SDS011;17904;47.420;9.310;2022-12-29T17:47:57;3.45;;;1.95;;
31270;SDS011;17904;47.420;9.310;2022-12-29T17:50:28;2.88;;;1.67;;
31270;SDS011;17904;47.420;9.310;2022-12-29T17:52:57;3.03;;;1.75;;
31270;SDS011;17904;47.420;9.310;2022-12-29T17:55:27;3.97;;;1.63;;
31270;SDS011;17904;47.420;9.310;2022-12-29T17:58:10;5.68;;;2.95;;
31270;SDS011;17904;47.420;9.310;2022-12-29T18:00:51;4.50;;;3.15;;
31270;SDS011;17904;47.420;9.310;2022-12-29T18:03:22;6.60;;;3.10;;
31270;SDS011;17904;47.420;9.310;2022-12-29T18:05:55;4.38;;;3.10;;
31270;SDS011;17904;47.420;9.310;2022-12-29T18:08:23;5.28;;;3.53;;
31270;SDS011;17904;47.420;9.310;2022-12-29T18:10:50;5.15;;;2.97;;
31270;SDS011;17904;47.420;9.310;2022-12-29T18:18:35;6.93;;;2.47;;
31270;SDS011;17904;47.420;9.310;2022-12-29T18:21:03;8.25;;;3.90;;
31270;SDS011;17904;47.420;9.310;2022-12-29T18:26:00;5.57;;;3.22;;
31270;SDS011;17904;47.420;9.310;2022-12-29T18:28:30;7.45;;;3.65;;
31270;SDS011;17904;47.420;9.310;2022-12-29T18:30:57;5.70;;;3.20;;
31270;SDS011;17904;47.420;9.310;2022-12-29T18:33:26;9.93;;;3.60;;
31270;SDS011;17904;47.420;9.310;2022-12-29T18:35:55;12.00;;;4.80;;
31270;SDS011;17904;47.420;9.310;2022-12-29T18:38:24;6.03;;;3.50;;
31270;SDS011;17904;47.420;9.310;2022-12-29T18:40:51;8.23;;;3.13;;
31270;SDS011;17904;47.420;9.310;2022-12-29T18:43:19;6.43;;;2.97;;
31270;SDS011;17904;47.420;9.310;2022-12-29T18:45:46;6.35;;;3.22;;